Aviation Digital Data Service (ADDS)

Output produced by METARs form (1623 UTC 04 August 2021)
found at http://www.aviationweather.gov/metar/data/
 
TAPA 041600Z 10009KT 050V150 9999 FEW018 SCT034 29/23 Q1018 NOSIG
TAPA 041500Z 09010KT 050V150 9999 SCT018 30/24 Q1019 NOSIG
TAPA 041400Z 10009KT 050V140 9999 SCT018TCU SCT034 29/23 Q1019 NOSIG
TAPA 041300Z 10008KT 050V140 9999 FEW014CB SCT016TCU BKN035 28/23 Q1019 NOSIG
TAF TAPA 041115Z 0412/0512 10008KT 9999 SCT017 
     TEMPO 0412/0416 4000 +SHRA FEW015CB BKN017 
     PROB30 
     TEMPO 0416/0423 SHRA
       
TRPG 041600Z 09010KT 060V130 9999 VCSH FEW019 28/25 Q1020
TRPG 041400Z 10011KT 010V130 9999 SCT017 SCT040 28/25 Q1020
TRPG 041300Z 10010KT 030V130 9000 VCSH BKN016 SCT040 27/25 Q1020
TAF TRPG 041115Z 0412/0512 13010KT 9999 SCT017 
     PROB40 
     TEMPO 0412/0416 4800 SHRA FEW015CB BKN017 
     PROB30 
     TEMPO 0416/0423 SHRA
       
TKPK 041600Z 10009KT 9999 FEW020 31/22 Q1019
TKPK 041500Z 10011KT 9999 FEW018 31/24 Q1019
TKPK 041400Z 09008KT 9999 FEW018 28/24 Q1019
TKPK 041300Z 09011KT 9999 -SHRA FEW010 SCT018 27/24 Q1019
TKPK 041123Z 0412/0512 08008KT P6SM VCTS FEW014 SCT018CB SCT040 
     FM041600 09012KT P6SM VCSH SCT018 SCT040 
     FM042300 06007KT P6SM SCT022 AMD NOT SKED 0502/0511
       
TKPN 041600Z 08010KT 9999 VCSH SCT018 SCT050 29/25 Q1018
TKPN 041400Z 11010KT 9999 BKN018 27/27 Q019
TAF TKPN 041115Z 0412/0512 12010KT 9999 SCT017 
     PROB40 
     TEMPO 0412/0416 4000 SHRA FEW015CB BKN017 
     PROB30 
     TEMPO 0416/0423 SHRA
       
TQPF 041600Z 12012KT 9999 FEW012CB FEW017TCU 29/24 Q1019 RMK CB-S, TCU-NE
TQPF 041500Z 11013KT 9999 SCT019 29/24 Q1019 RMK CB TOP-N
TQPF 041400Z 12015KT 9999 FEW012CB SCT036 28/24 Q1020 RMK CB-N,W
TQPF 041300Z 12017KT 9999 FEW013CB BKN018 27/25 Q1020 RMK CB-N
TAF TQPF 041115Z 0412/0512 10010KT 9999 SCT017 
     TEMPO 0412/0416 4000 +SHRA FEW015CB BKN017 
     PROB30 
     TEMPO 0416/0423 SHRA
       
TUPJ 041600Z 10011KT 10SM SCT018TCU 30/26 A3009 RMK Q1019 VIS16KM
TUPJ 041500Z 10010KT 10SM BKN017 29/26 A3009 RMK Q1019 VIS16KM
TUPJ 041400Z 09008KT 10SM VCSH FEW016CB SCT018 28/26 A3009 RMK Q1019 VIS16KM VCSH/CB-SE/N
TUPJ 041300Z 10007KT 10SM VCSH SCT016 28/26 A3006 RMK Q1018 VIS16KM VCSH-SE/N
TAF TUPJ 041115Z 0412/0512 10008KT 9999 SCT017 
     TEMPO 0412/0416 4000 +SHRA FEW015CB BKN017 
     PROB30 
     TEMPO 0416/0422 SHRA